sensor_id;sensor_type;location;lat;lon;timestamp;pressure;altitude;pressure_sealevel;temperature;humidity
11682;BME280;5897;42.640;23.310;2022-07-23T00:00:12;94189.16;;;22.78;45.43
11682;BME280;5897;42.640;23.310;2022-07-23T00:02:39;94187.06;;;22.46;46.42
11682;BME280;5897;42.640;23.310;2022-07-23T00:05:06;94191.59;;;22.54;44.99
11682;BME280;5897;42.640;23.310;2022-07-23T00:07:33;94193.81;;;22.45;44.67
11682;BME280;5897;42.640;23.310;2022-07-23T00:10:00;94191.56;;;22.49;44.79
11682;BME280;5897;42.640;23.310;2022-07-23T00:12:27;94194.59;;;22.51;45.54
11682;BME280;5897;42.640;23.310;2022-07-23T00:14:55;94190.78;;;22.43;45.72
11682;BME280;5897;42.640;23.310;2022-07-23T00:17:22;94197.59;;;22.53;45.25
11682;BME280;5897;42.640;23.310;2022-07-23T00:19:48;94197.84;;;22.44;46.04
11682;BME280;5897;42.640;23.310;2022-07-23T00:22:15;94201.31;;;22.44;46.55
11682;BME280;5897;42.640;23.310;2022-07-23T00:24:42;94203.09;;;22.53;46.32
11682;BME280;5897;42.640;23.310;2022-07-23T00:27:09;94202.63;;;22.60;46.59
11682;BME280;5897;42.640;23.310;2022-07-23T00:29:36;94205.69;;;22.73;46.83
11682;BME280;5897;42.640;23.310;2022-07-23T00:32:05;94174.72;;;22.36;46.94
11682;BME280;5897;42.640;23.310;2022-07-23T00:34:31;94218.66;;;22.56;47.61
11682;BME280;5897;42.640;23.310;2022-07-23T00:36:58;94214.63;;;22.57;47.35
11682;BME280;5897;42.640;23.310;2022-07-23T00:39:25;94209.13;;;22.57;47.39
11682;BME280;5897;42.640;23.310;2022-07-23T00:41:52;94206.09;;;22.55;48.11
11682;BME280;5897;42.640;23.310;2022-07-23T00:44:20;94205.38;;;22.54;48.10
11682;BME280;5897;42.640;23.310;2022-07-23T00:46:48;94202.38;;;22.58;48.51
11682;BME280;5897;42.640;23.310;2022-07-23T00:49:20;94204.59;;;22.54;48.40
11682;BME280;5897;42.640;23.310;2022-07-23T00:51:48;94208.50;;;22.31;48.46
11682;BME280;5897;42.640;23.310;2022-07-23T00:54:15;94206.69;;;22.17;48.93
11682;BME280;5897;42.640;23.310;2022-07-23T00:56:43;94202.38;;;22.05;48.97
11682;BME280;5897;42.640;23.310;2022-07-23T00:59:10;94200.13;;;22.03;49.43
11682;BME280;5897;42.640;23.310;2022-07-23T01:01:37;94199.09;;;21.95;50.48
11682;BME280;5897;42.640;23.310;2022-07-23T01:04:04;94205.75;;;21.83;51.36
11682;BME280;5897;42.640;23.310;2022-07-23T01:06:34;94204.53;;;21.84;51.50
11682;BME280;5897;42.640;23.310;2022-07-23T01:09:03;94201.03;;;21.84;51.72
11682;BME280;5897;42.640;23.310;2022-07-23T01:11:30;94197.31;;;21.87;52.00
11682;BME280;5897;42.640;23.310;2022-07-23T01:13:57;94195.75;;;21.80;52.52
11682;BME280;5897;42.640;23.310;2022-07-23T01:16:24;94194.72;;;21.78;52.39
11682;BME280;5897;42.640;23.310;2022-07-23T01:18:51;94195.78;;;21.86;52.63
11682;BME280;5897;42.640;23.310;2022-07-23T01:21:18;94192.25;;;21.80;52.23
11682;BME280;5897;42.640;23.310;2022-07-23T01:23:46;94193.97;;;21.77;53.27
11682;BME280;5897;42.640;23.310;2022-07-23T01:26:13;94188.19;;;21.70;53.60
11682;BME280;5897;42.640;23.310;2022-07-23T01:28:42;94194.63;;;21.67;53.26
11682;BME280;5897;42.640;23.310;2022-07-23T01:31:09;94195.34;;;21.62;52.96
11682;BME280;5897;42.640;23.310;2022-07-23T01:33:36;94192.38;;;21.65;52.49
11682;BME280;5897;42.640;23.310;2022-07-23T01:36:03;94198.34;;;21.64;51.87
11682;BME280;5897;42.640;23.310;2022-07-23T01:38:30;94193.41;;;21.68;51.85
11682;BME280;5897;42.640;23.310;2022-07-23T01:40:58;94197.13;;;21.65;52.40
11682;BME280;5897;42.640;23.310;2022-07-23T01:43:25;94152.69;;;21.35;52.01
11682;BME280;5897;42.640;23.310;2022-07-23T01:45:52;94190.56;;;21.57;52.02
11682;BME280;5897;42.640;23.310;2022-07-23T01:48:19;94191.34;;;21.57;52.06
11682;BME280;5897;42.640;23.310;2022-07-23T01:50:46;94184.34;;;21.56;51.63
11682;BME280;5897;42.640;23.310;2022-07-23T01:53:13;94182.56;;;21.53;51.80
11682;BME280;5897;42.640;23.310;2022-07-23T01:55:40;94187.56;;;21.55;51.84
11682;BME280;5897;42.640;23.310;2022-07-23T01:58:08;94185.78;;;21.52;52.00
11682;BME280;5897;42.640;23.310;2022-07-23T02:00:35;94183.03;;;21.52;51.02
11682;BME280;5897;42.640;23.310;2022-07-23T02:03:02;94183.50;;;21.45;51.07
11682;BME280;5897;42.640;23.310;2022-07-23T02:05:29;94159.38;;;21.29;50.83
11682;BME280;5897;42.640;23.310;2022-07-23T02:07:57;94186.06;;;21.54;50.72
11682;BME280;5897;42.640;23.310;2022-07-23T02:10:24;94189.94;;;21.73;50.19
11682;BME280;5897;42.640;23.310;2022-07-23T02:12:51;94190.72;;;21.73;49.92
11682;BME280;5897;42.640;23.310;2022-07-23T02:15:19;94185.84;;;21.57;50.39
11682;BME280;5897;42.640;23.310;2022-07-23T02:17:46;94190.56;;;21.57;50.22
11682;BME280;5897;42.640;23.310;2022-07-23T02:20:13;94197.88;;;21.65;50.85
11682;BME280;5897;42.640;23.310;2022-07-23T02:22:39;94189.63;;;21.65;51.23
11682;BME280;5897;42.640;23.310;2022-07-23T02:25:07;94191.69;;;21.70;51.58
11682;BME280;5897;42.640;23.310;2022-07-23T02:27:34;94157.50;;;21.46;52.34
11682;BME280;5897;42.640;23.310;2022-07-23T02:30:01;94190.09;;;21.64;52.88
11682;BME280;5897;42.640;23.310;2022-07-23T02:32:29;94198.19;;;21.67;51.90
11682;BME280;5897;42.640;23.310;2022-07-23T02:34:56;94190.56;;;21.57;50.32
11682;BME280;5897;42.640;23.310;2022-07-23T02:37:23;94188.53;;;21.52;50.06
11682;BME280;5897;42.640;23.310;2022-07-23T02:39:50;94192.44;;;21.40;50.20
11682;BME280;5897;42.640;23.310;2022-07-23T02:42:17;94196.69;;;21.41;50.29
11682;BME280;5897;42.640;23.310;2022-07-23T02:44:44;94191.97;;;21.41;50.44
11682;BME280;5897;42.640;23.310;2022-07-23T02:47:10;94200.97;;;21.42;50.54
11682;BME280;5897;42.640;23.310;2022-07-23T02:49:38;94201.69;;;21.37;50.63
11682;BME280;5897;42.640;23.310;2022-07-23T02:52:05;94203.59;;;21.25;51.30
11682;BME280;5897;42.640;23.310;2022-07-23T02:54:32;94199.06;;;21.22;51.40
11682;BME280;5897;42.640;23.310;2022-07-23T02:56:59;94193.84;;;21.24;51.63
11682;BME280;5897;42.640;23.310;2022-07-23T02:59:25;94201.59;;;21.26;51.92
11682;BME280;5897;42.640;23.310;2022-07-23T03:01:52;94204.31;;;20.95;52.98
11682;BME280;5897;42.640;23.310;2022-07-23T03:04:19;94214.66;;;20.80;54.13
11682;BME280;5897;42.640;23.310;2022-07-23T03:06:47;94213.88;;;20.79;54.58
11682;BME280;5897;42.640;23.310;2022-07-23T03:09:14;94212.75;;;20.66;54.99
11682;BME280;5897;42.640;23.310;2022-07-23T03:11:41;94222.34;;;20.76;54.92
11682;BME280;5897;42.640;23.310;2022-07-23T03:14:07;94224.38;;;20.81;55.06
11682;BME280;5897;42.640;23.310;2022-07-23T03:16:34;94229.63;;;20.79;55.55
11682;BME280;5897;42.640;23.310;2022-07-23T03:19:01;94223.47;;;20.64;55.97
11682;BME280;5897;42.640;23.310;2022-07-23T03:21:28;94223.19;;;20.62;56.23
11682;BME280;5897;42.640;23.310;2022-07-23T03:23:56;94227.81;;;20.50;56.96
11682;BME280;5897;42.640;23.310;2022-07-23T03:26:23;94225.00;;;20.45;57.42
11682;BME280;5897;42.640;23.310;2022-07-23T03:28:50;94229.09;;;20.55;57.47
11682;BME280;5897;42.640;23.310;2022-07-23T03:31:17;94233.47;;;20.67;57.69
11682;BME280;5897;42.640;23.310;2022-07-23T03:33:44;94230.31;;;20.74;58.59
11682;BME280;5897;42.640;23.310;2022-07-23T03:36:11;94232.03;;;20.71;58.06
11682;BME280;5897;42.640;23.310;2022-07-23T03:38:37;94239.03;;;20.72;57.32
11682;BME280;5897;42.640;23.310;2022-07-23T03:41:05;94238.81;;;20.76;56.00
11682;BME280;5897;42.640;23.310;2022-07-23T03:43:33;94233.38;;;20.81;55.43
11682;BME280;5897;42.640;23.310;2022-07-23T03:46:00;94241.41;;;20.85;55.97
11682;BME280;5897;42.640;23.310;2022-07-23T03:48:26;94241.97;;;20.89;56.39
11682;BME280;5897;42.640;23.310;2022-07-23T03:50:53;94241.75;;;20.92;57.07
11682;BME280;5897;42.640;23.310;2022-07-23T03:53:20;94239.00;;;20.92;57.28
11682;BME280;5897;42.640;23.310;2022-07-23T03:55:47;94242.84;;;21.00;57.50
11682;BME280;5897;42.640;23.310;2022-07-23T03:58:15;94244.38;;;21.07;57.35
11682;BME280;5897;42.640;23.310;2022-07-23T04:00:41;94240.41;;;21.08;57.88
11682;BME280;5897;42.640;23.310;2022-07-23T04:03:08;94234.25;;;21.18;58.05
11682;BME280;5897;42.640;23.310;2022-07-23T04:05:35;94240.78;;;21.21;58.14
11682;BME280;5897;42.640;23.310;2022-07-23T04:08:02;94238.28;;;21.23;58.45
11682;BME280;5897;42.640;23.310;2022-07-23T04:10:28;94242.53;;;21.24;58.59
11682;BME280;5897;42.640;23.310;2022-07-23T04:12:55;94235.13;;;21.30;58.96
11682;BME280;5897;42.640;23.310;2022-07-23T04:15:23;94236.72;;;21.42;58.69
11682;BME280;5897;42.640;23.310;2022-07-23T04:17:50;94238.25;;;21.48;57.93
11682;BME280;5897;42.640;23.310;2022-07-23T04:20:17;94239.53;;;21.53;58.27
11682;BME280;5897;42.640;23.310;2022-07-23T04:22:43;94245.06;;;21.58;58.88
11682;BME280;5897;42.640;23.310;2022-07-23T04:25:10;94242.09;;;21.62;59.96
11682;BME280;5897;42.640;23.310;2022-07-23T04:27:38;94253.75;;;21.77;59.66
11682;BME280;5897;42.640;23.310;2022-07-23T04:30:06;94248.50;;;21.79;59.67
11682;BME280;5897;42.640;23.310;2022-07-23T04:32:35;94254.78;;;21.85;60.35
11682;BME280;5897;42.640;23.310;2022-07-23T04:35:02;94256.81;;;21.90;60.66
11682;BME280;5897;42.640;23.310;2022-07-23T04:37:29;94261.34;;;21.93;60.48
11682;BME280;5897;42.640;23.310;2022-07-23T04:39:55;94254.91;;;22.01;60.56
11682;BME280;5897;42.640;23.310;2022-07-23T04:42:22;94253.19;;;22.09;59.81
11682;BME280;5897;42.640;23.310;2022-07-23T04:44:49;94258.72;;;22.15;59.44
11682;BME280;5897;42.640;23.310;2022-07-23T04:47:15;94239.19;;;22.07;58.57
11682;BME280;5897;42.640;23.310;2022-07-23T04:49:44;94257.03;;;22.28;59.04
11682;BME280;5897;42.640;23.310;2022-07-23T04:52:11;94266.34;;;22.36;58.77
11682;BME280;5897;42.640;23.310;2022-07-23T04:54:37;94258.16;;;22.47;57.49
11682;BME280;5897;42.640;23.310;2022-07-23T04:57:04;94269.19;;;22.53;58.12
11682;BME280;5897;42.640;23.310;2022-07-23T04:59:31;94266.25;;;22.67;58.04
11682;BME280;5897;42.640;23.310;2022-07-23T05:01:58;94265.25;;;22.76;57.15
11682;BME280;5897;42.640;23.310;2022-07-23T05:04:24;94241.94;;;22.66;56.67
11682;BME280;5897;42.640;23.310;2022-07-23T05:06:53;94269.59;;;22.93;55.61
11682;BME280;5897;42.640;23.310;2022-07-23T05:09:20;94266.34;;;22.95;55.45
11682;BME280;5897;42.640;23.310;2022-07-23T05:11:46;94268.13;;;23.03;55.12
11682;BME280;5897;42.640;23.310;2022-07-23T05:14:13;94271.34;;;23.07;55.32
11682;BME280;5897;42.640;23.310;2022-07-23T05:16:40;94268.63;;;23.13;54.76
11682;BME280;5897;42.640;23.310;2022-07-23T05:19:06;94269.91;;;23.23;54.71
11682;BME280;5897;42.640;23.310;2022-07-23T05:21:33;94271.44;;;23.35;55.08
11682;BME280;5897;42.640;23.310;2022-07-23T05:24:01;94269.69;;;23.48;55.27
11682;BME280;5897;42.640;23.310;2022-07-23T05:28:55;94271.69;;;23.64;54.79
11682;BME280;5897;42.640;23.310;2022-07-23T05:31:21;94264.41;;;23.78;54.48
11682;BME280;5897;42.640;23.310;2022-07-23T05:33:48;94266.94;;;23.76;53.64
11682;BME280;5897;42.640;23.310;2022-07-23T05:36:15;94271.69;;;23.86;53.49
11682;BME280;5897;42.640;23.310;2022-07-23T05:38:42;94265.69;;;23.99;52.49
11682;BME280;5897;42.640;23.310;2022-07-23T05:41:10;94270.44;;;24.15;51.54
11682;BME280;5897;42.640;23.310;2022-07-23T05:43:37;94269.16;;;24.27;50.71
11682;BME280;5897;42.640;23.310;2022-07-23T05:46:04;94274.66;;;24.21;52.51
11682;BME280;5897;42.640;23.310;2022-07-23T05:48:31;94268.59;;;24.39;52.47
11682;BME280;5897;42.640;23.310;2022-07-23T05:50:57;94267.28;;;24.57;49.65
11682;BME280;5897;42.640;23.310;2022-07-23T05:53:24;94267.00;;;24.71;47.95
11682;BME280;5897;42.640;23.310;2022-07-23T05:55:51;94270.00;;;24.73;47.72
11682;BME280;5897;42.640;23.310;2022-07-23T05:58:19;94273.25;;;24.83;47.29
11682;BME280;5897;42.640;23.310;2022-07-23T06:00:46;94274.44;;;24.93;47.46
11682;BME280;5897;42.640;23.310;2022-07-23T06:03:13;94273.09;;;25.05;47.77
11682;BME280;5897;42.640;23.310;2022-07-23T06:05:39;94269.25;;;25.19;48.23
11682;BME280;5897;42.640;23.310;2022-07-23T06:08:06;94266.47;;;25.30;47.47
11682;BME280;5897;42.640;23.310;2022-07-23T06:10:33;94267.03;;;25.52;47.52
11682;BME280;5897;42.640;23.310;2022-07-23T06:13:00;94266.03;;;25.55;48.08
11682;BME280;5897;42.640;23.310;2022-07-23T06:15:28;94269.53;;;25.56;47.73
11682;BME280;5897;42.640;23.310;2022-07-23T06:17:55;94261.69;;;25.65;47.53
11682;BME280;5897;42.640;23.310;2022-07-23T06:20:22;94265.59;;;25.75;46.78
11682;BME280;5897;42.640;23.310;2022-07-23T06:22:49;94269.78;;;25.87;47.38
11682;BME280;5897;42.640;23.310;2022-07-23T06:25:15;94263.72;;;25.94;47.18
11682;BME280;5897;42.640;23.310;2022-07-23T06:27:42;94265.84;;;26.07;46.73
11682;BME280;5897;42.640;23.310;2022-07-23T06:30:10;94264.03;;;26.15;46.33
11682;BME280;5897;42.640;23.310;2022-07-23T06:32:39;94259.09;;;26.26;46.84
11682;BME280;5897;42.640;23.310;2022-07-23T06:35:06;94223.81;;;26.08;45.05
11682;BME280;5897;42.640;23.310;2022-07-23T06:37:33;94265.47;;;26.45;45.08
11682;BME280;5897;42.640;23.310;2022-07-23T06:40:00;94268.38;;;26.58;46.16
11682;BME280;5897;42.640;23.310;2022-07-23T06:42:26;94266.34;;;26.59;45.52
11682;BME280;5897;42.640;23.310;2022-07-23T06:44:53;94265.63;;;26.77;43.87
11682;BME280;5897;42.640;23.310;2022-07-23T06:47:20;94256.72;;;26.84;44.55
11682;BME280;5897;42.640;23.310;2022-07-23T06:49:51;94265.63;;;26.77;44.29
11682;BME280;5897;42.640;23.310;2022-07-23T06:52:17;94263.41;;;26.94;44.43
11682;BME280;5897;42.640;23.310;2022-07-23T06:54:44;94262.50;;;27.04;43.51
11682;BME280;5897;42.640;23.310;2022-07-23T06:57:11;94258.59;;;27.13;43.74
11682;BME280;5897;42.640;23.310;2022-07-23T06:59:37;94266.84;;;27.18;42.34
11682;BME280;5897;42.640;23.310;2022-07-23T07:02:06;94262.53;;;27.23;42.65
11682;BME280;5897;42.640;23.310;2022-07-23T07:04:33;94263.41;;;27.31;44.02
11682;BME280;5897;42.640;23.310;2022-07-23T07:07:01;94264.97;;;27.45;42.29
11682;BME280;5897;42.640;23.310;2022-07-23T07:09:28;94264.28;;;27.57;42.94
11682;BME280;5897;42.640;23.310;2022-07-23T07:11:55;94262.78;;;27.56;41.94
11682;BME280;5897;42.640;23.310;2022-07-23T07:14:22;94256.53;;;27.69;38.67
11682;BME280;5897;42.640;23.310;2022-07-23T07:16:48;94257.06;;;27.67;39.42
11682;BME280;5897;42.640;23.310;2022-07-23T07:19:15;94258.47;;;27.74;41.45
11682;BME280;5897;42.640;23.310;2022-07-23T07:21:42;94248.25;;;27.82;40.50
11682;BME280;5897;42.640;23.310;2022-07-23T07:24:10;94253.22;;;28.02;39.49
11682;BME280;5897;42.640;23.310;2022-07-23T07:26:37;94254.41;;;28.06;39.27
11682;BME280;5897;42.640;23.310;2022-07-23T07:29:07;94251.53;;;28.12;40.19
11682;BME280;5897;42.640;23.310;2022-07-23T07:31:34;94241.06;;;28.18;40.99
11682;BME280;5897;42.640;23.310;2022-07-23T07:34:00;94240.00;;;28.21;41.68
11682;BME280;5897;42.640;23.310;2022-07-23T07:36:27;94239.28;;;28.33;42.73
11682;BME280;5897;42.640;23.310;2022-07-23T07:38:54;94235.44;;;28.49;41.23
11682;BME280;5897;42.640;23.310;2022-07-23T07:41:22;94237.03;;;28.58;40.69
11682;BME280;5897;42.640;23.310;2022-07-23T07:43:49;94235.22;;;28.73;42.20
11682;BME280;5897;42.640;23.310;2022-07-23T07:46:16;94240.09;;;28.93;40.44
11682;BME280;5897;42.640;23.310;2022-07-23T07:48:43;94236.78;;;28.95;39.68
11682;BME280;5897;42.640;23.310;2022-07-23T07:51:10;94246.41;;;29.07;39.76
11682;BME280;5897;42.640;23.310;2022-07-23T07:53:36;94238.03;;;29.20;40.43
11682;BME280;5897;42.640;23.310;2022-07-23T07:56:04;94241.63;;;29.41;38.54
11682;BME280;5897;42.640;23.310;2022-07-23T07:58:32;94238.56;;;29.52;37.95
11682;BME280;5897;42.640;23.310;2022-07-23T08:00:59;94234.97;;;29.44;39.18
11682;BME280;5897;42.640;23.310;2022-07-23T08:03:25;94208.97;;;29.41;39.70
11682;BME280;5897;42.640;23.310;2022-07-23T08:05:55;94230.44;;;29.54;38.22
11682;BME280;5897;42.640;23.310;2022-07-23T08:08:22;94233.53;;;29.84;40.43
11682;BME280;5897;42.640;23.310;2022-07-23T08:10:48;94223.44;;;30.01;38.50
11682;BME280;5897;42.640;23.310;2022-07-23T08:13:16;94223.50;;;30.09;38.44
11682;BME280;5897;42.640;23.310;2022-07-23T08:15:44;94225.63;;;30.16;38.88
11682;BME280;5897;42.640;23.310;2022-07-23T08:18:11;94226.16;;;30.35;38.16
11682;BME280;5897;42.640;23.310;2022-07-23T08:20:37;94227.72;;;30.51;36.98
11682;BME280;5897;42.640;23.310;2022-07-23T08:23:05;94229.88;;;30.65;36.08
11682;BME280;5897;42.640;23.310;2022-07-23T08:25:34;94225.66;;;30.44;38.21
11682;BME280;5897;42.640;23.310;2022-07-23T08:28:04;94223.81;;;30.74;36.52
11682;BME280;5897;42.640;23.310;2022-07-23T08:30:31;94214.00;;;30.81;36.32
11682;BME280;5897;42.640;23.310;2022-07-23T08:33:01;94229.69;;;30.99;37.13
11682;BME280;5897;42.640;23.310;2022-07-23T08:35:31;94221.94;;;31.12;35.58
11682;BME280;5897;42.640;23.310;2022-07-23T08:37:59;94223.69;;;31.30;36.34
11682;BME280;5897;42.640;23.310;2022-07-23T08:40:27;94225.16;;;31.24;36.75
11682;BME280;5897;42.640;23.310;2022-07-23T08:42:54;94225.41;;;31.41;35.74
11682;BME280;5897;42.640;23.310;2022-07-23T08:45:23;94225.09;;;31.67;35.39
11682;BME280;5897;42.640;23.310;2022-07-23T08:47:51;94222.16;;;31.87;34.59
11682;BME280;5897;42.640;23.310;2022-07-23T08:50:21;94218.44;;;32.00;33.95
11682;BME280;5897;42.640;23.310;2022-07-23T08:52:49;94198.69;;;31.98;34.24
11682;BME280;5897;42.640;23.310;2022-07-23T08:55:16;94219.19;;;32.23;35.61
11682;BME280;5897;42.640;23.310;2022-07-23T08:57:43;94212.09;;;32.14;35.09
11682;BME280;5897;42.640;23.310;2022-07-23T09:00:11;94186.38;;;31.86;34.77
11682;BME280;5897;42.640;23.310;2022-07-23T09:02:39;94225.53;;;32.46;34.45
11682;BME280;5897;42.640;23.310;2022-07-23T09:05:07;94219.00;;;32.51;31.51
11682;BME280;5897;42.640;23.310;2022-07-23T09:07:35;94205.88;;;32.68;33.33
11682;BME280;5897;42.640;23.310;2022-07-23T09:10:07;94203.41;;;32.87;32.56
11682;BME280;5897;42.640;23.310;2022-07-23T09:12:34;94184.59;;;32.88;33.00
11682;BME280;5897;42.640;23.310;2022-07-23T09:15:06;94209.47;;;33.16;32.60
11682;BME280;5897;42.640;23.310;2022-07-23T09:17:38;94208.59;;;33.06;31.97
11682;BME280;5897;42.640;23.310;2022-07-23T09:20:10;94211.69;;;33.25;30.42
11682;BME280;5897;42.640;23.310;2022-07-23T09:22:40;94211.19;;;33.51;29.52
11682;BME280;5897;42.640;23.310;2022-07-23T09:25:12;94209.38;;;33.70;29.79
11682;BME280;5897;42.640;23.310;2022-07-23T09:27:54;94193.19;;;33.61;28.81
11682;BME280;5897;42.640;23.310;2022-07-23T09:30:25;94200.41;;;33.79;28.95
11682;BME280;5897;42.640;23.310;2022-07-23T09:33:09;94205.19;;;34.11;29.54
11682;BME280;5897;42.640;23.310;2022-07-23T09:35:46;94196.53;;;34.16;29.43
11682;BME280;5897;42.640;23.310;2022-07-23T09:38:15;94192.88;;;34.31;30.01
11682;BME280;5897;42.640;23.310;2022-07-23T09:40:43;94183.00;;;34.47;28.83
11682;BME280;5897;42.640;23.310;2022-07-23T09:43:10;94187.38;;;34.74;26.13
11682;BME280;5897;42.640;23.310;2022-07-23T09:45:37;94187.91;;;34.80;26.75
11682;BME280;5897;42.640;23.310;2022-07-23T09:48:12;94183.38;;;35.02;26.47
11682;BME280;5897;42.640;23.310;2022-07-23T09:50:40;94172.16;;;34.85;25.47
11682;BME280;5897;42.640;23.310;2022-07-23T09:53:10;94173.78;;;35.05;23.83
11682;BME280;5897;42.640;23.310;2022-07-23T09:55:53;94186.25;;;35.28;23.51
11682;BME280;5897;42.640;23.310;2022-07-23T09:58:21;94180.47;;;35.53;22.78
11682;BME280;5897;42.640;23.310;2022-07-23T10:00:51;94179.63;;;35.60;20.67
11682;BME280;5897;42.640;23.310;2022-07-23T10:03:21;94174.25;;;35.54;20.91
11682;BME280;5897;42.640;23.310;2022-07-23T10:05:52;94175.31;;;35.59;22.76
11682;BME280;5897;42.640;23.310;2022-07-23T10:08:20;94169.16;;;35.43;22.87
11682;BME280;5897;42.640;23.310;2022-07-23T10:10:51;94156.50;;;35.78;22.51
11682;BME280;5897;42.640;23.310;2022-07-23T10:13:19;94171.94;;;35.87;22.14
11682;BME280;5897;42.640;23.310;2022-07-23T10:16:12;94171.28;;;36.15;22.64
11682;BME280;5897;42.640;23.310;2022-07-23T10:18:39;94162.03;;;36.41;20.52
11682;BME280;5897;42.640;23.310;2022-07-23T10:21:07;94162.38;;;36.64;21.04
11682;BME280;5897;42.640;23.310;2022-07-23T10:23:39;94167.44;;;36.75;21.98
11682;BME280;5897;42.640;23.310;2022-07-23T10:26:13;94152.88;;;36.50;20.80
11682;BME280;5897;42.640;23.310;2022-07-23T10:29:00;94162.53;;;36.94;18.08
11682;BME280;5897;42.640;23.310;2022-07-23T10:31:37;94139.84;;;37.02;17.87
11682;BME280;5897;42.640;23.310;2022-07-23T10:34:13;94130.19;;;37.05;18.52
11682;BME280;5897;42.640;23.310;2022-07-23T10:36:47;94153.28;;;37.51;18.81
11682;BME280;5897;42.640;23.310;2022-07-23T10:39:20;94149.44;;;37.56;18.74
11682;BME280;5897;42.640;23.310;2022-07-23T10:41:51;94150.31;;;37.58;18.11
11682;BME280;5897;42.640;23.310;2022-07-23T10:44:20;94145.66;;;37.23;17.33
11682;BME280;5897;42.640;23.310;2022-07-23T10:46:56;94128.88;;;36.49;18.05
11682;BME280;5897;42.640;23.310;2022-07-23T10:49:33;94134.06;;;36.90;18.42
11682;BME280;5897;42.640;23.310;2022-07-23T10:52:25;94137.63;;;36.91;18.40
11682;BME280;5897;42.640;23.310;2022-07-23T10:54:54;94133.47;;;37.30;18.77
11682;BME280;5897;42.640;23.310;2022-07-23T10:57:26;94125.38;;;37.64;18.25
11682;BME280;5897;42.640;23.310;2022-07-23T11:00:13;94126.03;;;37.84;19.42
11682;BME280;5897;42.640;23.310;2022-07-23T11:02:41;94119.59;;;38.02;18.25
11682;BME280;5897;42.640;23.310;2022-07-23T11:05:09;94119.56;;;38.33;17.87
11682;BME280;5897;42.640;23.310;2022-07-23T11:08:09;94110.44;;;38.44;16.61
11682;BME280;5897;42.640;23.310;2022-07-23T11:10:32;94112.78;;;38.68;15.21
11682;BME280;5897;42.640;23.310;2022-07-23T11:13:26;94108.41;;;38.77;15.52
11682;BME280;5897;42.640;23.310;2022-07-23T11:16:25;94105.59;;;39.09;16.64
11682;BME280;5897;42.640;23.310;2022-07-23T11:19:03;94103.13;;;39.36;17.76
11682;BME280;5897;42.640;23.310;2022-07-23T11:21:44;94098.47;;;39.52;15.35
11682;BME280;5897;42.640;23.310;2022-07-23T11:32:11;94088.22;;;38.92;15.01
11682;BME280;5897;42.640;23.310;2022-07-23T11:34:45;94066.47;;;38.94;15.09
11682;BME280;5897;42.640;23.310;2022-07-23T11:37:27;94089.72;;;38.51;14.91
11682;BME280;5897;42.640;23.310;2022-07-23T11:39:55;94079.38;;;38.44;15.36
11682;BME280;5897;42.640;23.310;2022-07-23T11:42:22;94083.53;;;38.64;14.85
11682;BME280;5897;42.640;23.310;2022-07-23T11:44:49;94072.03;;;38.71;15.07
11682;BME280;5897;42.640;23.310;2022-07-23T11:47:22;94076.56;;;38.97;15.41
11682;BME280;5897;42.640;23.310;2022-07-23T11:49:53;94077.28;;;39.30;13.73
11682;BME280;5897;42.640;23.310;2022-07-23T11:52:21;94075.84;;;39.41;14.79
11682;BME280;5897;42.640;23.310;2022-07-23T11:54:49;94077.84;;;39.73;12.98
11682;BME280;5897;42.640;23.310;2022-07-23T11:57:17;94042.91;;;39.57;12.63
11682;BME280;5897;42.640;23.310;2022-07-23T11:59:47;94072.69;;;40.04;13.19
11682;BME280;5897;42.640;23.310;2022-07-23T12:02:14;94071.06;;;40.24;13.12
11682;BME280;5897;42.640;23.310;2022-07-23T12:04:44;94061.19;;;40.48;11.69
11682;BME280;5897;42.640;23.310;2022-07-23T12:07:31;94060.78;;;40.65;11.51
11682;BME280;5897;42.640;23.310;2022-07-23T12:10:00;94065.38;;;40.83;11.57
11682;BME280;5897;42.640;23.310;2022-07-23T12:12:35;94059.47;;;40.79;11.71
11682;BME280;5897;42.640;23.310;2022-07-23T12:15:04;94060.84;;;40.78;11.78
11682;BME280;5897;42.640;23.310;2022-07-23T12:17:34;94044.41;;;40.52;12.28
11682;BME280;5897;42.640;23.310;2022-07-23T12:20:04;94045.75;;;40.62;12.41
11682;BME280;5897;42.640;23.310;2022-07-23T12:22:36;94049.91;;;40.73;12.45
11682;BME280;5897;42.640;23.310;2022-07-23T12:25:05;94046.28;;;41.09;12.45
11682;BME280;5897;42.640;23.310;2022-07-23T12:27:33;94038.13;;;41.15;13.20
11682;BME280;5897;42.640;23.310;2022-07-23T12:30:15;94036.63;;;40.89;13.09
11682;BME280;5897;42.640;23.310;2022-07-23T12:32:43;94014.81;;;40.91;13.24
11682;BME280;5897;42.640;23.310;2022-07-23T12:35:12;94037.50;;;41.16;12.85
11682;BME280;5897;42.640;23.310;2022-07-23T12:37:41;94038.91;;;41.04;12.22
11682;BME280;5897;42.640;23.310;2022-07-23T12:40:36;94030.50;;;41.31;10.72
11682;BME280;5897;42.640;23.310;2022-07-23T12:43:05;94024.88;;;41.44;11.06
11682;BME280;5897;42.640;23.310;2022-07-23T12:45:46;94028.06;;;41.64;11.98
11682;BME280;5897;42.640;23.310;2022-07-23T12:48:21;94023.78;;;41.76;10.51
11682;BME280;5897;42.640;23.310;2022-07-23T12:50:54;94022.66;;;41.43;11.64
11682;BME280;5897;42.640;23.310;2022-07-23T12:53:23;94021.56;;;41.23;9.52
11682;BME280;5897;42.640;23.310;2022-07-23T12:55:56;94021.41;;;41.07;9.83
11682;BME280;5897;42.640;23.310;2022-07-23T12:58:24;94019.63;;;41.14;11.07
11682;BME280;5897;42.640;23.310;2022-07-23T13:01:09;94013.41;;;41.04;12.29
11682;BME280;5897;42.640;23.310;2022-07-23T13:03:38;94007.19;;;41.32;12.18
11682;BME280;5897;42.640;23.310;2022-07-23T13:06:07;94004.94;;;41.56;10.81
11682;BME280;5897;42.640;23.310;2022-07-23T13:08:35;94009.13;;;41.41;11.64
11682;BME280;5897;42.640;23.310;2022-07-23T13:11:03;94006.41;;;41.57;10.93
11682;BME280;5897;42.640;23.310;2022-07-23T13:13:33;93994.75;;;41.64;11.38
11682;BME280;5897;42.640;23.310;2022-07-23T13:16:00;94008.41;;;41.68;11.53
11682;BME280;5897;42.640;23.310;2022-07-23T13:18:27;94000.47;;;41.78;12.14